Time;durP1;ratioP1;P1;durP2;ratioP2;P2;SDS_P1;SDS_P2;PMS_P1;PMS_P2;Temp;Humidity;BMP_temperature;BMP_pressure;BME280_temperature;BME280_humidity;BME280_pressure;Samples;Min_cycle;Max_cycle;Signal;HPM_P1;HPM_P2
2022/12/11 00:00:18;;;;;;;25.27;14.53;;;2.90;99.90;;;;;;5093350;28;20270;-73
2022/12/11 00:02:43;;;;;;;27.90;15.40;;;3.00;99.90;;;;;;5093195;28;20254;-72
2022/12/11 00:05:09;;;;;;;25.83;14.93;;;3.00;99.90;;;;;;5092948;28;20258;-72
2022/12/11 00:07:35;;;;;;;30.00;16.27;;;2.90;99.90;;;;;;5092917;28;20239;-72
2022/12/11 00:10:00;;;;;;;29.57;15.67;;;3.00;99.90;;;;;;5093168;28;20216;-72
2022/12/11 00:12:26;;;;;;;26.73;15.03;;;2.90;99.90;;;;;;5092740;28;20211;-72
2022/12/11 00:14:51;;;;;;;26.27;15.23;;;2.80;99.90;;;;;;5093123;28;20266;-72
2022/12/11 00:17:17;;;;;;;26.43;15.03;;;2.70;99.90;;;;;;5093154;28;20171;-72
2022/12/11 00:19:43;;;;;;;28.30;15.40;;;2.90;99.90;;;;;;5092671;28;20267;-72
2022/12/11 00:22:08;;;;;;;31.00;16.17;;;2.80;99.90;;;;;;5091645;28;20168;-72
2022/12/11 00:24:34;;;;;;;28.10;15.73;;;2.80;99.90;;;;;;5093084;28;20168;-72
2022/12/11 00:27:00;;;;;;;26.37;14.97;;;2.80;99.90;;;;;;5093562;28;20627;-72
2022/12/11 00:29:25;;;;;;;26.07;15.40;;;2.80;99.90;;;;;;5093119;28;20203;-72
2022/12/11 00:31:51;;;;;;;24.00;14.83;;;2.80;99.90;;;;;;5091695;28;20168;-72
2022/12/11 00:34:16;;;;;;;25.00;14.77;;;2.90;99.90;;;;;;5092664;28;20175;-72
2022/12/11 00:36:42;;;;;;;25.23;15.07;;;2.90;99.90;;;;;;5095642;28;20223;-72
2022/12/11 00:39:08;;;;;;;23.07;15.20;;;3.00;99.90;;;;;;5096921;28;20171;-71
2022/12/11 00:41:33;;;;;;;23.23;13.67;;;3.00;99.90;;;;;;5096824;28;20577;-72
2022/12/11 00:43:59;;;;;;;28.73;15.67;;;3.10;99.90;;;;;;5096782;28;20164;-72
2022/12/11 00:46:25;;;;;;;25.17;14.87;;;3.10;99.90;;;;;;5096726;28;20171;-72
2022/12/11 00:48:50;;;;;;;31.53;16.00;;;3.00;99.90;;;;;;5096331;28;20199;-72
2022/12/11 00:51:17;;;;;;;30.40;16.60;;;3.00;99.90;;;;;;5096457;28;20631;-71
2022/12/11 00:53:43;;;;;;;27.70;16.97;;;3.00;99.90;;;;;;5096628;28;20203;-72
2022/12/11 00:56:14;;;;;;;28.07;15.70;;;3.00;99.90;;;;;;5095267;28;20168;-71
2022/12/11 00:58:40;;;;;;;31.17;16.10;;;3.00;99.90;;;;;;5095267;28;20172;-71
2022/12/11 01:01:11;;;;;;;25.57;15.00;;;3.00;99.90;;;;;;5095370;28;20517;-73
2022/12/11 01:03:37;;;;;;;28.10;16.00;;;3.00;99.90;;;;;;5094687;28;20171;-72
2022/12/11 01:06:03;;;;;;;28.60;15.57;;;3.10;99.90;;;;;;5096401;28;20201;-72
2022/12/11 01:08:29;;;;;;;27.00;15.37;;;3.10;99.90;;;;;;5096134;28;20224;-72
2022/12/11 01:11:05;;;;;;;32.67;16.90;;;3.00;99.90;;;;;;5094737;28;20171;-72
2022/12/11 01:13:31;;;;;;;27.70;16.30;;;3.00;99.90;;;;;;5095001;28;20191;-72
2022/12/11 01:15:57;;;;;;;26.73;15.63;;;3.00;99.90;;;;;;5096261;28;20183;-72
2022/12/11 01:18:23;;;;;;;27.93;15.80;;;3.00;99.90;;;;;;5095659;28;20181;-72
2022/12/11 01:20:48;;;;;;;28.73;15.47;;;3.00;99.90;;;;;;5096082;28;20175;-72
2022/12/11 01:23:14;;;;;;;31.70;16.30;;;2.90;99.90;;;;;;5096012;28;20525;-72
2022/12/11 01:25:41;;;;;;;27.40;15.63;;;2.90;99.90;;;;;;5096043;28;20206;-72
2022/12/11 01:28:08;;;;;;;28.33;16.27;;;2.90;99.90;;;;;;5096054;28;20208;-71
2022/12/11 01:30:34;;;;;;;30.10;16.20;;;3.00;99.90;;;;;;5096060;28;20213;-71
2022/12/11 01:33:00;;;;;;;28.40;15.10;;;3.10;99.90;;;;;;5095421;28;20202;-71
2022/12/11 01:35:26;;;;;;;25.57;15.00;;;3.10;99.90;;;;;;5095750;28;20172;-71
2022/12/11 01:37:52;;;;;;;27.43;16.60;;;3.20;99.90;;;;;;5094502;28;20708;-71
2022/12/11 01:40:19;;;;;;;28.77;15.60;;;3.20;99.90;;;;;;5094604;28;20172;-71
2022/12/11 01:42:45;;;;;;;27.13;14.97;;;3.20;99.90;;;;;;5095946;28;20251;-70
2022/12/11 01:45:26;;;;;;;28.63;15.43;;;3.10;99.90;;;;;;5095533;28;20199;-70
2022/12/11 01:48:05;;;;;;;26.83;15.77;;;3.00;99.90;;;;;;5094582;28;20195;-70
2022/12/11 01:50:34;;;;;;;27.17;15.97;;;3.00;99.90;;;;;;5095581;28;20175;-70
2022/12/11 01:53:03;;;;;;;32.70;16.83;;;3.00;99.90;;;;;;5094118;28;20688;-71
2022/12/11 01:55:29;;;;;;;28.50;16.37;;;3.10;99.90;;;;;;5095381;28;20269;-71
2022/12/11 01:57:54;;;;;;;34.67;17.20;;;3.10;99.90;;;;;;5095307;28;20207;-71
2022/12/11 02:00:21;;;;;;;27.67;16.50;;;3.10;99.90;;;;;;5095058;28;20172;-71
2022/12/11 02:02:46;;;;;;;28.27;16.80;;;3.10;99.90;;;;;;5095402;28;20168;-70
2022/12/11 02:05:12;;;;;;;30.07;17.00;;;3.10;99.90;;;;;;5095247;28;20179;-72
2022/12/11 02:07:59;;;;;;;29.77;16.63;;;3.10;99.90;;;;;;5095138;28;20236;-72
2022/12/11 02:10:49;;;;;;;31.70;16.70;;;3.10;99.90;;;;;;5094864;28;20175;-72
2022/12/11 02:13:29;;;;;;;29.33;16.17;;;3.10;99.90;;;;;;5094975;28;20191;-72
2022/12/11 02:16:05;;;;;;;28.03;16.20;;;3.10;99.90;;;;;;5094811;28;20634;-71
2022/12/11 02:18:38;;;;;;;28.90;16.23;;;3.10;99.90;;;;;;5095054;28;20515;-72
2022/12/11 02:21:15;;;;;;;30.37;17.20;;;3.20;99.90;;;;;;5093610;28;20168;-72
2022/12/11 02:24:14;;;;;;;29.67;17.57;;;3.30;99.90;;;;;;5094887;28;20265;-72
2022/12/11 02:27:02;;;;;;;35.77;17.37;;;3.30;99.90;;;;;;5094829;28;20172;-71
2022/12/11 02:30:03;;;;;;;28.97;16.13;;;3.30;99.90;;;;;;5094463;28;20262;-71
2022/12/11 02:32:43;;;;;;;30.50;17.73;;;3.20;99.90;;;;;;5094878;28;20159;-71
2022/12/11 02:35:20;;;;;;;33.23;16.93;;;3.30;99.90;;;;;;5094601;28;20195;-71
2022/12/11 02:37:50;;;;;;;26.63;16.20;;;3.30;99.90;;;;;;5094627;28;20198;-71
2022/12/11 02:40:20;;;;;;;29.57;16.47;;;3.30;99.90;;;;;;5094735;28;20175;-71
2022/12/11 02:42:48;;;;;;;34.37;17.53;;;3.20;99.90;;;;;;5093357;28;20171;-71
2022/12/11 02:45:15;;;;;;;31.40;17.93;;;3.20;99.90;;;;;;5094152;28;20160;-71
2022/12/11 02:47:45;;;;;;;29.67;17.27;;;3.30;99.90;;;;;;5094401;28;20160;-71
2022/12/11 02:50:15;;;;;;;29.30;17.07;;;3.30;99.90;;;;;;5094351;28;20183;-71
2022/12/11 02:52:42;;;;;;;30.97;17.10;;;3.20;99.90;;;;;;5092999;28;20714;-71
2022/12/11 02:55:11;;;;;;;28.87;16.73;;;3.30;99.90;;;;;;5094236;28;20265;-71
2022/12/11 02:58:13;;;;;;;30.40;17.50;;;3.20;99.90;;;;;;5094192;28;20168;-71
2022/12/11 03:00:39;;;;;;;32.17;17.00;;;3.30;99.90;;;;;;5012286;28;20182;-72
2022/12/11 03:03:05;;;;;;;31.13;16.83;;;3.20;99.90;;;;;;5012184;28;20194;-71
2022/12/11 03:05:30;;;;;;;31.83;17.13;;;3.10;99.90;;;;;;5012189;28;20579;-71
2022/12/11 03:07:56;;;;;;;32.23;17.53;;;3.10;99.90;;;;;;5012014;28;20218;-72
2022/12/11 03:10:22;;;;;;;36.03;18.67;;;3.10;99.90;;;;;;5012151;28;20747;-72
2022/12/11 03:12:52;;;;;;;33.67;18.77;;;3.00;99.90;;;;;;5011316;28;20219;-72
2022/12/11 03:15:21;;;;;;;32.73;18.37;;;3.00;99.90;;;;;;5011892;28;20213;-71
2022/12/11 03:18:10;;;;;;;29.57;16.77;;;3.00;99.90;;;;;;5011869;28;20592;-71
2022/12/11 03:20:38;;;;;;;33.53;18.37;;;3.00;99.90;;;;;;5011807;28;20211;-71
2022/12/11 03:23:36;;;;;;;33.70;18.13;;;3.00;99.90;;;;;;5011769;28;20182;-70
2022/12/11 03:26:10;;;;;;;32.83;17.97;;;3.00;99.90;;;;;;4972700;28;20219;-71
2022/12/11 03:28:49;;;;;;;32.50;19.13;;;3.00;99.90;;;;;;4972317;28;20232;-71
2022/12/11 03:31:37;;;;;;;33.77;17.97;;;2.90;99.90;;;;;;4972784;28;20180;-71
2022/12/11 03:34:12;;;;;;;34.70;18.90;;;2.90;99.90;;;;;;4972895;28;20183;-72
2022/12/11 03:36:38;;;;;;;34.97;18.33;;;2.90;99.90;;;;;;5014122;28;20280;-71
2022/12/11 03:39:14;;;;;;;32.77;18.43;;;2.90;99.90;;;;;;5031322;28;20192;-71
2022/12/11 03:41:43;;;;;;;35.83;18.63;;;3.00;99.90;;;;;;5030922;28;20166;-72
2022/12/11 03:44:10;;;;;;;33.43;18.70;;;3.00;99.90;;;;;;5030984;28;20178;-71
2022/12/11 03:46:38;;;;;;;39.73;21.23;;;2.90;99.90;;;;;;5031291;28;20325;-71
2022/12/11 03:49:16;;;;;;;32.93;17.53;;;3.00;99.90;;;;;;5031214;28;20319;-71
2022/12/11 03:51:45;;;;;;;38.47;19.20;;;3.00;99.90;;;;;;5031152;28;20170;-71
2022/12/11 03:54:11;;;;;;;39.67;19.60;;;3.10;99.90;;;;;;5031108;28;20273;-71
2022/12/11 03:56:39;;;;;;;39.03;19.43;;;3.00;99.90;;;;;;5030550;28;20217;-71
2022/12/11 03:59:05;;;;;;;35.33;19.53;;;3.10;99.90;;;;;;5031108;28;20235;-72
2022/12/11 04:01:30;;;;;;;36.30;18.93;;;3.10;99.90;;;;;;5040561;28;20206;-71
2022/12/11 04:03:56;;;;;;;38.60;20.33;;;3.10;99.90;;;;;;5093369;28;20572;-71
2022/12/11 04:06:22;;;;;;;36.67;19.40;;;3.00;99.90;;;;;;5093248;28;20168;-71
2022/12/11 04:08:47;;;;;;;37.90;19.83;;;3.00;99.90;;;;;;5092980;28;20690;-72
2022/12/11 04:16:41;;;;;;;40.07;19.67;;;3.00;99.90;;;;;;5097167;28;20245;-71
2022/12/11 04:24:41;;;;;;;39.27;19.90;;;3.10;99.90;;;;;;5097499;28;20207;-72
2022/12/11 04:27:07;;;;;;;39.17;20.33;;;3.10;99.90;;;;;;5096782;28;20200;-72
2022/12/11 04:29:33;;;;;;;38.70;20.13;;;3.00;99.90;;;;;;5096953;28;20643;-72
2022/12/11 04:31:58;;;;;;;38.77;19.97;;;3.00;99.90;;;;;;5095202;28;20167;-72
2022/12/11 04:34:24;;;;;;;42.83;20.93;;;3.00;99.90;;;;;;5096827;28;20167;-72
2022/12/11 04:36:50;;;;;;;42.73;21.10;;;3.10;99.90;;;;;;5096729;28;20206;-71
2022/12/11 04:39:15;;;;;;;42.93;22.07;;;2.90;99.90;;;;;;5096296;28;20258;-71
2022/12/11 04:41:42;;;;;;;49.90;22.60;;;2.90;99.90;;;;;;5096682;28;20164;-71
2022/12/11 04:44:08;;;;;;;43.83;21.50;;;3.00;99.90;;;;;;5096603;28;20183;-71
2022/12/11 04:46:33;;;;;;;43.27;20.63;;;2.90;99.90;;;;;;5096384;28;20250;-71
2022/12/11 04:48:59;;;;;;;42.30;21.47;;;3.00;99.90;;;;;;5096478;28;20202;-71
2022/12/11 04:51:26;;;;;;;44.97;21.17;;;3.00;99.90;;;;;;5096363;28;20156;-71
2022/12/11 04:53:53;;;;;;;38.33;20.13;;;3.10;99.90;;;;;;5096188;28;20176;-71
2022/12/11 04:56:19;;;;;;;41.50;19.77;;;3.10;99.90;;;;;;5094656;28;20636;-71
2022/12/11 04:58:47;;;;;;;40.77;20.37;;;3.10;99.90;;;;;;5096544;28;20171;-71
2022/12/11 05:01:18;;;;;;;44.00;21.37;;;3.10;99.90;;;;;;5096246;28;20643;-71
2022/12/11 05:03:45;;;;;;;41.20;21.20;;;3.00;99.90;;;;;;5096315;28;20251;-71
2022/12/11 05:06:11;;;;;;;40.07;20.53;;;3.00;99.90;;;;;;5096313;28;20179;-71
2022/12/11 05:08:39;;;;;;;41.43;21.00;;;2.90;99.90;;;;;;5095789;28;20211;-71
2022/12/11 05:11:08;;;;;;;38.20;20.67;;;2.90;99.90;;;;;;5095854;28;20215;-73
2022/12/11 05:13:34;;;;;;;41.67;20.83;;;3.00;99.90;;;;;;5096192;28;20170;-72
2022/12/11 05:16:03;;;;;;;41.17;20.57;;;3.00;99.90;;;;;;5095952;28;20164;-72
2022/12/11 05:18:28;;;;;;;42.27;20.57;;;3.10;99.90;;;;;;5096184;28;20168;-72
2022/12/11 05:21:00;;;;;;;36.47;19.97;;;3.00;99.90;;;;;;5094353;28;20233;-71
2022/12/11 05:23:27;;;;;;;44.47;21.10;;;3.00;99.90;;;;;;5094466;28;20190;-72
2022/12/11 05:25:58;;;;;;;41.03;20.97;;;3.00;99.90;;;;;;5094376;28;20186;-72
2022/12/11 05:28:25;;;;;;;40.23;21.10;;;3.00;99.90;;;;;;5095922;28;20212;-72
2022/12/11 05:31:01;;;;;;;40.93;20.93;;;3.10;99.90;;;;;;5095944;28;20175;-72
2022/12/11 05:33:27;;;;;;;43.00;20.47;;;3.10;99.90;;;;;;5096011;28;20221;-72
2022/12/11 05:35:53;;;;;;;39.10;19.80;;;3.00;99.90;;;;;;5094244;28;20192;-71
2022/12/11 05:38:19;;;;;;;41.80;21.63;;;3.00;99.90;;;;;;5095364;28;20232;-71
2022/12/11 05:40:44;;;;;;;41.10;20.47;;;3.00;99.90;;;;;;5095638;28;20172;-72
2022/12/11 05:43:10;;;;;;;38.00;21.33;;;3.00;99.90;;;;;;5094268;28;20182;-72
2022/12/11 05:45:36;;;;;;;38.87;20.70;;;3.00;99.90;;;;;;5094715;28;20254;-72
2022/12/11 05:48:02;;;;;;;42.00;20.77;;;3.00;99.90;;;;;;5095310;28;20203;-72
2022/12/11 05:50:27;;;;;;;42.87;20.37;;;3.00;99.90;;;;;;5095336;28;20183;-72
2022/12/11 05:52:53;;;;;;;40.43;21.50;;;3.00;99.90;;;;;;5094962;28;20164;-72
2022/12/11 05:55:18;;;;;;;41.33;21.00;;;2.90;99.90;;;;;;5094958;28;20171;-71
2022/12/11 05:57:44;;;;;;;40.17;20.97;;;2.90;99.90;;;;;;5095176;28;20650;-73
2022/12/11 06:00:11;;;;;;;40.33;21.07;;;2.80;99.90;;;;;;5095124;28;20168;-73
2022/12/11 06:02:37;;;;;;;39.87;21.30;;;2.80;99.90;;;;;;5095061;28;20186;-72
2022/12/11 06:05:03;;;;;;;40.80;22.20;;;2.70;99.90;;;;;;5094904;28;20172;-72
2022/12/11 06:07:28;;;;;;;43.80;21.37;;;2.80;99.90;;;;;;5093339;28;20198;-72
2022/12/11 06:09:54;;;;;;;40.67;20.77;;;2.80;99.90;;;;;;5093322;28;20245;-73
2022/12/11 06:12:20;;;;;;;40.03;21.97;;;2.80;99.90;;;;;;5094178;28;20226;-73
2022/12/11 06:14:45;;;;;;;44.20;22.20;;;2.80;99.90;;;;;;5094803;28;20168;-72
2022/12/11 06:17:11;;;;;;;43.83;20.80;;;2.80;99.90;;;;;;5095039;28;20657;-71
2022/12/11 06:19:37;;;;;;;43.30;21.93;;;2.80;99.90;;;;;;5094595;28;20175;-72
2022/12/11 06:22:02;;;;;;;39.60;20.87;;;2.70;99.90;;;;;;5092617;28;20180;-71
2022/12/11 06:24:28;;;;;;;36.17;18.57;;;2.70;99.90;;;;;;5094717;28;20624;-71
2022/12/11 06:26:53;;;;;;;35.87;19.87;;;2.60;99.90;;;;;;5094825;28;20164;-71
2022/12/11 06:29:19;;;;;;;38.23;20.90;;;2.60;99.90;;;;;;5094283;28;20264;-72
2022/12/11 06:31:45;;;;;;;39.57;21.10;;;2.70;99.90;;;;;;5093015;28;20269;-72
2022/12/11 06:34:12;;;;;;;42.73;21.90;;;2.60;99.90;;;;;;5094238;28;20175;-71
2022/12/11 06:36:38;;;;;;;39.23;21.10;;;2.50;99.90;;;;;;5093812;28;20678;-71
2022/12/11 06:39:04;;;;;;;42.60;22.03;;;2.50;99.90;;;;;;5094363;28;20223;-71
2022/12/11 06:41:29;;;;;;;41.67;20.73;;;2.50;99.90;;;;;;5076074;28;20226;-73
2022/12/11 06:43:55;;;;;;;45.17;21.67;;;2.50;99.90;;;;;;5094082;28;20164;-72
2022/12/11 06:46:20;;;;;;;44.30;22.17;;;2.50;99.90;;;;;;5093738;28;20168;-72
2022/12/11 06:48:47;;;;;;;46.00;21.10;;;2.60;99.90;;;;;;5093674;28;20297;-71
2022/12/11 06:51:15;;;;;;;39.73;19.00;;;2.60;99.90;;;;;;5094000;28;20168;-72
2022/12/11 06:53:41;;;;;;;39.47;21.77;;;2.60;99.90;;;;;;5092762;28;20172;-72
2022/12/11 06:56:13;;;;;;;42.60;21.33;;;2.50;99.90;;;;;;5093895;28;20175;-72
2022/12/11 06:58:39;;;;;;;41.10;22.20;;;2.50;99.90;;;;;;5093575;28;20168;-72
2022/12/11 07:01:14;;;;;;;43.30;21.30;;;2.60;99.90;;;;;;5094187;28;20170;-72
2022/12/11 07:03:39;;;;;;;42.63;20.93;;;2.70;99.90;;;;;;5094059;28;20185;-72
2022/12/11 07:06:05;;;;;;;42.17;21.10;;;2.70;99.90;;;;;;5092696;28;20172;-72
2022/12/11 07:08:31;;;;;;;43.53;21.70;;;2.80;99.90;;;;;;5093777;28;20211;-72
2022/12/11 07:11:04;;;;;;;44.00;22.77;;;2.80;99.90;;;;;;5093529;28;20211;-72
2022/12/11 07:13:30;;;;;;;43.20;21.30;;;2.80;99.90;;;;;;5093604;28;20274;-72
2022/12/11 07:15:58;;;;;;;43.00;22.37;;;2.70;99.90;;;;;;5093705;28;20255;-72
2022/12/11 07:18:23;;;;;;;38.60;21.40;;;2.60;99.90;;;;;;5093488;28;20174;-72
2022/12/11 07:20:49;;;;;;;40.37;20.63;;;2.70;99.90;;;;;;5092575;28;20646;-72
2022/12/11 07:23:14;;;;;;;42.47;21.07;;;2.70;99.90;;;;;;5093475;28;20180;-71
2022/12/11 07:25:40;;;;;;;36.13;19.23;;;2.70;99.90;;;;;;5093394;28;20519;-71
2022/12/11 07:28:06;;;;;;;45.83;21.67;;;2.70;99.90;;;;;;5093561;28;20196;-72
2022/12/11 07:30:32;;;;;;;42.27;20.57;;;2.70;99.90;;;;;;5093420;28;20635;-72
2022/12/11 07:32:57;;;;;;;38.23;20.20;;;2.80;99.90;;;;;;5093434;28;20176;-71
2022/12/11 07:35:23;;;;;;;41.30;21.27;;;2.70;99.90;;;;;;5092643;28;20178;-71
2022/12/11 07:37:48;;;;;;;37.60;19.23;;;2.80;99.90;;;;;;5093148;28;20192;-72
2022/12/11 07:40:14;;;;;;;37.73;20.40;;;2.70;99.90;;;;;;5092910;28;20707;-72
2022/12/11 07:42:39;;;;;;;42.67;20.57;;;2.80;99.90;;;;;;5093346;28;20564;-72
2022/12/11 07:45:06;;;;;;;40.40;20.77;;;2.80;99.90;;;;;;5092426;28;20550;-72
2022/12/11 07:47:32;;;;;;;39.17;20.57;;;2.80;99.90;;;;;;5091912;28;20266;-72
2022/12/11 07:49:58;;;;;;;39.33;19.00;;;2.70;99.90;;;;;;5092091;28;20210;-72
2022/12/11 07:52:23;;;;;;;41.83;20.10;;;2.70;99.90;;;;;;5093028;28;20168;-72
2022/12/11 07:54:49;;;;;;;38.10;20.00;;;2.60;99.90;;;;;;5093213;28;20740;-73
2022/12/11 07:57:15;;;;;;;41.63;20.17;;;2.70;99.90;;;;;;5093013;28;20224;-73
2022/12/11 07:59:40;;;;;;;39.60;20.10;;;2.70;99.90;;;;;;5093009;28;20192;-72
2022/12/11 08:02:09;;;;;;;39.73;21.23;;;2.70;99.90;;;;;;5092898;28;20193;-72
2022/12/11 08:04:34;;;;;;;46.07;20.97;;;2.80;99.90;;;;;;5092448;28;20238;-71
2022/12/11 08:07:00;;;;;;;41.43;21.17;;;2.70;99.90;;;;;;5093136;28;20164;-73
2022/12/11 08:09:26;;;;;;;39.10;21.07;;;2.80;99.90;;;;;;5092721;28;20203;-72
2022/12/11 08:11:51;;;;;;;37.67;19.93;;;2.90;99.90;;;;;;5092567;28;20687;-70
2022/12/11 08:14:18;;;;;;;38.40;20.63;;;2.90;99.90;;;;;;5092758;28;20267;-71
2022/12/11 08:16:44;;;;;;;41.77;20.83;;;2.90;99.90;;;;;;5092449;28;20226;-70
2022/12/11 08:19:11;;;;;;;42.63;20.63;;;2.80;99.90;;;;;;5092707;28;20631;-71
2022/12/11 08:21:38;;;;;;;45.27;21.23;;;2.80;99.90;;;;;;5092690;28;20176;-71
2022/12/11 08:24:04;;;;;;;45.37;21.07;;;2.80;99.90;;;;;;5092975;28;20670;-71
2022/12/11 08:26:30;;;;;;;30.43;15.87;;;2.90;99.90;;;;;;5092851;28;20186;-72
2022/12/11 08:28:56;;;;;;;29.87;17.90;;;2.90;99.90;;;;;;5092618;28;20203;-72
2022/12/11 08:31:23;;;;;;;37.87;19.10;;;2.70;99.90;;;;;;5092315;28;20188;-73
2022/12/11 08:33:49;;;;;;;37.93;19.77;;;2.70;99.90;;;;;;5092664;28;21118;-73
2022/12/11 08:36:17;;;;;;;33.33;18.63;;;2.70;99.90;;;;;;5092697;28;20666;-73
2022/12/11 08:38:45;;;;;;;34.43;17.50;;;2.70;99.90;;;;;;5092911;28;20179;-72
2022/12/11 08:41:14;;;;;;;32.63;17.83;;;2.70;99.90;;;;;;5092753;28;20172;-72
2022/12/11 08:43:40;;;;;;;33.53;16.67;;;2.80;99.90;;;;;;5092360;28;20202;-72
2022/12/11 08:46:06;;;;;;;33.07;18.90;;;2.50;99.90;;;;;;5091817;28;20172;-73
2022/12/11 08:48:37;;;;;;;31.73;18.47;;;2.60;99.90;;;;;;5092604;28;20199;-72
2022/12/11 08:51:05;;;;;;;35.10;18.63;;;2.70;99.90;;;;;;5092505;28;20242;-73
2022/12/11 08:53:31;;;;;;;33.83;19.20;;;2.70;99.90;;;;;;5092186;28;20168;-71
2022/12/11 08:56:09;;;;;;;36.57;19.27;;;2.80;99.90;;;;;;5092539;28;20293;-72
2022/12/11 08:58:35;;;;;;;33.27;18.23;;;3.00;99.90;;;;;;5095608;28;20168;-73
2022/12/11 09:01:09;;;;;;;32.77;18.27;;;2.90;99.90;;;;;;5095298;28;20183;-72
2022/12/11 09:03:36;;;;;;;34.33;18.33;;;2.70;99.90;;;;;;5096135;28;20190;-72
2022/12/11 09:06:06;;;;;;;29.63;15.43;;;2.70;99.90;;;;;;5096057;28;20179;-72
2022/12/11 09:08:32;;;;;;;32.87;16.87;;;2.70;99.90;;;;;;5095943;28;20685;-72
2022/12/11 09:11:29;;;;;;;35.33;17.27;;;2.40;99.90;;;;;;5095477;28;20171;-72
2022/12/11 09:13:55;;;;;;;30.00;16.53;;;2.40;99.90;;;;;;5095980;28;20520;-72
2022/12/11 09:16:23;;;;;;;33.10;17.07;;;2.50;99.90;;;;;;5095562;28;20167;-73
2022/12/11 09:18:50;;;;;;;33.07;18.27;;;2.50;99.90;;;;;;5095283;28;20171;-73
2022/12/11 09:21:21;;;;;;;32.43;17.37;;;2.50;99.90;;;;;;5095589;28;20219;-72
2022/12/11 09:23:47;;;;;;;33.73;17.20;;;2.60;99.90;;;;;;5095716;28;20175;-71
2022/12/11 09:26:16;;;;;;;32.27;17.70;;;2.70;99.90;;;;;;5095219;28;20176;-71
2022/12/11 09:28:42;;;;;;;33.60;18.13;;;2.70;99.90;;;;;;5095518;28;20283;-73
2022/12/11 09:31:32;;;;;;;30.97;17.27;;;2.80;99.90;;;;;;5095567;28;20168;-72
2022/12/11 09:34:00;;;;;;;29.83;17.93;;;2.90;99.90;;;;;;5095569;28;20175;-73
2022/12/11 09:36:26;;;;;;;33.57;18.03;;;2.90;99.90;;;;;;5095519;28;20180;-72
2022/12/11 09:38:52;;;;;;;30.30;16.53;;;3.00;99.90;;;;;;5095283;28;20175;-72
2022/12/11 09:41:21;;;;;;;28.50;15.17;;;3.10;99.90;;;;;;5095332;28;20164;-71
2022/12/11 09:44:23;;;;;;;30.20;16.47;;;3.00;99.90;;;;;;5095089;28;20175;-72
2022/12/11 09:46:50;;;;;;;32.00;15.47;;;3.10;99.90;;;;;;5095381;28;20168;-72
2022/12/11 09:49:42;;;;;;;31.40;15.73;;;2.90;99.90;;;;;;5094934;28;20199;-72
2022/12/11 09:52:16;;;;;;;32.20;16.43;;;2.80;99.90;;;;;;5094919;28;20182;-71
2022/12/11 09:54:59;;;;;;;31.07;16.40;;;2.80;99.90;;;;;;5093789;28;20527;-71
2022/12/11 09:57:36;;;;;;;30.57;17.10;;;2.80;99.90;;;;;;5094764;28;20176;-72
2022/12/11 10:00:14;;;;;;;31.73;16.80;;;2.70;99.90;;;;;;5093372;28;20167;-73
2022/12/11 10:02:51;;;;;;;31.20;16.17;;;2.70;99.90;;;;;;5095189;28;20181;-71
2022/12/11 10:05:29;;;;;;;32.77;16.57;;;2.70;99.90;;;;;;5094928;28;20186;-73
2022/12/11 10:08:22;;;;;;;31.53;16.30;;;2.70;99.90;;;;;;5094169;28;20236;-73
2022/12/11 10:11:15;;;;;;;31.57;15.27;;;2.70;99.90;;;;;;5094466;28;20182;-73
2022/12/11 10:14:05;;;;;;;32.80;17.20;;;2.70;99.90;;;;;;5094083;28;20228;-73
2022/12/11 10:16:37;;;;;;;40.60;20.50;;;2.70;99.90;;;;;;5094444;28;20655;-72
2022/12/11 10:19:03;;;;;;;35.60;17.17;;;2.80;99.90;;;;;;5094789;28;20240;-73
2022/12/11 10:21:37;;;;;;;44.90;23.23;;;2.80;99.90;;;;;;5094359;28;20168;-71
2022/12/11 10:24:09;;;;;;;39.40;20.97;;;2.80;99.90;;;;;;5094549;28;20174;-73
2022/12/11 10:26:38;;;;;;;47.70;25.40;;;2.90;99.90;;;;;;5094822;28;20172;-72
2022/12/11 10:29:10;;;;;;;33.90;16.13;;;3.00;99.90;;;;;;5093744;28;20207;-72
2022/12/11 10:31:55;;;;;;;64.80;41.27;;;2.90;99.90;;;;;;5094259;28;20170;-72
2022/12/11 10:34:34;;;;;;;37.23;20.03;;;2.90;99.90;;;;;;5094505;28;20172;-72
2022/12/11 10:36:59;;;;;;;32.50;17.73;;;2.90;99.90;;;;;;5094188;28;20267;-72
2022/12/11 10:39:25;;;;;;;36.57;18.33;;;3.00;99.90;;;;;;5094015;28;20309;-72
2022/12/11 10:41:53;;;;;;;34.80;18.27;;;3.10;99.90;;;;;;5075048;28;20164;-73
2022/12/11 10:44:26;;;;;;;36.67;19.20;;;3.20;99.90;;;;;;5094172;28;20180;-72
2022/12/11 10:47:13;;;;;;;37.07;20.03;;;3.40;99.90;;;;;;5093715;28;20172;-72
2022/12/11 10:49:50;;;;;;;37.27;18.73;;;3.50;99.90;;;;;;5094196;28;20200;-72
2022/12/11 10:52:41;;;;;;;36.60;17.97;;;3.60;99.90;;;;;;5094004;28;20160;-71
2022/12/11 10:55:16;;;;;;;36.97;18.67;;;3.50;99.90;;;;;;5093852;28;20183;-71
2022/12/11 10:57:42;;;;;;;36.97;20.13;;;3.40;99.90;;;;;;5092704;28;20168;-71
2022/12/11 11:00:28;;;;;;;37.70;19.37;;;3.50;99.90;;;;;;5093682;28;20180;-71
2022/12/11 11:02:54;;;;;;;40.53;18.83;;;3.60;99.90;;;;;;5093853;28;20267;-73
2022/12/11 11:05:33;;;;;;;33.53;18.13;;;3.90;99.90;;;;;;5093021;28;20699;-72
2022/12/11 11:08:14;;;;;;;36.37;18.93;;;4.20;99.90;;;;;;5092165;28;20634;-71
2022/12/11 11:11:19;;;;;;;39.83;17.87;;;4.70;99.90;;;;;;5093379;28;20305;-72
2022/12/11 11:13:45;;;;;;;33.63;16.90;;;4.60;99.90;;;;;;5081620;28;20187;-71
2022/12/11 11:16:14;;;;;;;33.03;17.20;;;4.90;99.90;;;;;;5093279;28;20278;-72
2022/12/11 11:18:42;;;;;;;32.00;17.47;;;5.60;99.90;;;;;;5093229;28;20297;-72
2022/12/11 11:21:16;;;;;;;30.80;15.93;;;6.50;99.90;;;;;;5091808;28;20175;-71
2022/12/11 11:23:43;;;;;;;32.13;16.47;;;7.00;99.90;;;;;;5093064;28;20244;-73
2022/12/11 11:26:10;;;;;;;29.27;14.67;;;7.10;99.90;;;;;;5093226;28;20182;-71
2022/12/11 11:28:48;;;;;;;26.33;14.87;;;7.60;99.90;;;;;;5092341;28;20294;-71
2022/12/11 11:31:16;;;;;;;30.07;17.00;;;7.70;99.90;;;;;;5093238;28;20202;-71
2022/12/11 11:33:55;;;;;;;28.90;15.80;;;8.10;99.90;;;;;;5093016;28;20183;-72
2022/12/11 11:36:26;;;;;;;23.10;13.50;;;8.50;99.90;;;;;;5092094;28;20200;-71
2022/12/11 11:39:10;;;;;;;24.50;13.67;;;8.60;99.70;;;;;;5092618;28;20175;-72
2022/12/11 11:41:39;;;;;;;22.63;13.57;;;8.00;99.30;;;;;;5092724;28;20163;-71
2022/12/11 11:44:10;;;;;;;23.70;13.03;;;7.50;99.90;;;;;;5093467;28;20273;-72
2022/12/11 11:46:44;;;;;;;22.37;12.77;;;7.10;99.90;;;;;;5093281;28;20164;-72
2022/12/11 11:49:23;;;;;;;24.27;12.80;;;6.80;99.90;;;;;;5092388;28;20532;-71
2022/12/11 11:51:58;;;;;;;21.37;12.13;;;6.40;99.90;;;;;;5092510;28;20168;-72
2022/12/11 11:54:33;;;;;;;23.57;11.73;;;6.10;99.90;;;;;;5092960;28;20233;-71
2022/12/11 11:57:04;;;;;;;21.90;11.83;;;5.90;99.90;;;;;;5092356;28;20164;-72
2022/12/11 11:59:35;;;;;;;27.40;13.20;;;5.70;99.90;;;;;;5092818;28;20198;-71
2022/12/11 12:02:01;;;;;;;25.10;13.07;;;5.40;99.90;;;;;;5092881;28;20645;-72
2022/12/11 12:04:35;;;;;;;27.63;12.73;;;5.40;99.90;;;;;;5093041;28;20168;-71
2022/12/11 12:07:09;;;;;;;29.30;17.03;;;5.30;99.90;;;;;;5092834;28;20213;-71
2022/12/11 12:09:38;;;;;;;26.93;13.60;;;5.30;99.90;;;;;;5092555;28;20227;-71
2022/12/11 12:12:24;;;;;;;22.83;12.43;;;5.20;99.90;;;;;;5090634;28;20280;-71
2022/12/11 12:14:50;;;;;;;23.73;11.63;;;5.20;99.90;;;;;;5093086;28;20204;-71
2022/12/11 12:17:27;;;;;;;30.87;18.17;;;5.00;99.90;;;;;;5092649;28;20167;-71
2022/12/11 12:20:06;;;;;;;20.73;11.57;;;5.00;99.90;;;;;;5091906;28;20254;-71
2022/12/11 12:23:07;;;;;;;21.57;11.27;;;4.90;99.90;;;;;;5091655;28;20505;-71
2022/12/11 12:25:41;;;;;;;53.87;39.17;;;4.70;99.90;;;;;;4993799;28;20643;-72
2022/12/11 12:28:18;;;;;;;21.20;10.20;;;4.50;99.90;;;;;;5010089;28;20186;-72
2022/12/11 12:31:04;;;;;;;32.00;21.90;;;4.30;99.90;;;;;;5010252;28;20182;-72
2022/12/11 12:33:59;;;;;;;24.37;13.67;;;4.20;99.90;;;;;;5004387;28;20193;-72
2022/12/11 12:36:43;;;;;;;24.30;12.30;;;4.00;99.90;;;;;;5005383;28;20198;-72
2022/12/11 12:39:11;;;;;;;29.17;17.37;;;3.90;99.90;;;;;;5013588;28;20226;-71
2022/12/11 12:41:56;;;;;;;27.37;13.40;;;4.00;99.90;;;;;;5014577;28;20179;-71
2022/12/11 12:44:23;;;;;;;28.20;14.73;;;3.90;99.90;;;;;;5014182;28;20170;-72
2022/12/11 12:46:58;;;;;;;31.23;17.60;;;3.80;99.90;;;;;;5014194;28;20181;-71
2022/12/11 12:49:44;;;;;;;29.23;14.33;;;3.90;99.90;;;;;;5030614;28;20316;-72
2022/12/11 12:52:22;;;;;;;31.13;15.17;;;4.00;99.90;;;;;;5012978;28;20230;-72
2022/12/11 12:55:12;;;;;;;29.70;14.30;;;3.80;99.90;;;;;;5014026;28;20797;-71
2022/12/11 12:57:44;;;;;;;31.97;14.97;;;3.80;99.90;;;;;;5014220;28;20183;-72
2022/12/11 13:00:13;;;;;;;38.97;21.50;;;3.80;99.90;;;;;;5021910;28;20171;-71
2022/12/11 13:02:49;;;;;;;43.10;22.77;;;3.70;99.90;;;;;;5095799;28;20284;-71